sensor_id;sensor_type;location;lat;lon;timestamp;P1;durP1;ratioP1;P2;durP2;ratioP2
77612;SDS011;66777;52.282;5.960;2023-08-31T00:02:17;331.08;;;322.85;;
77612;SDS011;66777;52.282;5.960;2023-08-31T00:04:44;328.85;;;320.85;;
77612;SDS011;66777;52.282;5.960;2023-08-31T00:07:10;325.00;;;317.08;;
77612;SDS011;66777;52.282;5.960;2023-08-31T00:09:36;319.92;;;312.20;;
77612;SDS011;66777;52.282;5.960;2023-08-31T00:12:02;315.63;;;307.83;;
77612;SDS011;66777;52.282;5.960;2023-08-31T00:14:28;310.85;;;303.27;;
77612;SDS011;66777;52.282;5.960;2023-08-31T00:16:54;319.17;;;311.38;;
77612;SDS011;66777;52.282;5.960;2023-08-31T00:19:22;290.70;;;283.45;;
77612;SDS011;66777;52.282;5.960;2023-08-31T00:21:48;311.00;;;303.42;;
77612;SDS011;66777;52.282;5.960;2023-08-31T00:24:14;308.67;;;301.23;;
77612;SDS011;66777;52.282;5.960;2023-08-31T00:26:40;309.25;;;301.63;;
77612;SDS011;66777;52.282;5.960;2023-08-31T00:29:10;279.40;;;272.45;;
77612;SDS011;66777;52.282;5.960;2023-08-31T00:31:36;321.85;;;313.92;;
77612;SDS011;66777;52.282;5.960;2023-08-31T00:34:02;311.58;;;304.05;;
77612;SDS011;66777;52.282;5.960;2023-08-31T00:36:29;324.30;;;316.42;;
77612;SDS011;66777;52.282;5.960;2023-08-31T00:38:56;327.38;;;319.38;;
77612;SDS011;66777;52.282;5.960;2023-08-31T00:41:22;331.63;;;323.67;;
77612;SDS011;66777;52.282;5.960;2023-08-31T00:43:48;330.60;;;322.65;;
77612;SDS011;66777;52.282;5.960;2023-08-31T00:46:13;327.70;;;319.73;;
77612;SDS011;66777;52.282;5.960;2023-08-31T00:48:40;316.33;;;308.33;;
77612;SDS011;66777;52.282;5.960;2023-08-31T00:51:07;327.95;;;319.98;;
77612;SDS011;66777;52.282;5.960;2023-08-31T00:53:33;311.77;;;304.05;;
77612;SDS011;66777;52.282;5.960;2023-08-31T00:56:00;335.92;;;327.73;;
77612;SDS011;66777;52.282;5.960;2023-08-31T00:58:27;325.75;;;317.75;;
77612;SDS011;66777;52.282;5.960;2023-08-31T01:04:32;308.83;;;301.15;;
77612;SDS011;66777;52.282;5.960;2023-08-31T01:13:11;321.60;;;313.55;;
77612;SDS011;66777;52.282;5.960;2023-08-31T01:18:10;316.33;;;308.42;;
77612;SDS011;66777;52.282;5.960;2023-08-31T01:23:31;266.15;;;258.63;;
77612;SDS011;66777;52.282;5.960;2023-08-31T01:26:12;323.33;;;314.70;;
77612;SDS011;66777;52.282;5.960;2023-08-31T01:28:38;303.17;;;294.50;;
77612;SDS011;66777;52.282;5.960;2023-08-31T01:31:04;257.27;;;249.98;;
77612;SDS011;66777;52.282;5.960;2023-08-31T01:33:30;313.63;;;305.02;;
77612;SDS011;66777;52.282;5.960;2023-08-31T01:35:56;320.15;;;310.75;;
77612;SDS011;66777;52.282;5.960;2023-08-31T01:38:25;312.02;;;303.08;;
77612;SDS011;66777;52.282;5.960;2023-08-31T01:43:25;299.20;;;290.67;;
77612;SDS011;66777;52.282;5.960;2023-08-31T01:45:52;299.23;;;290.85;;
77612;SDS011;66777;52.282;5.960;2023-08-31T01:48:19;318.00;;;308.98;;
77612;SDS011;66777;52.282;5.960;2023-08-31T01:50:46;254.50;;;246.68;;
77612;SDS011;66777;52.282;5.960;2023-08-31T01:53:11;311.20;;;302.65;;
77612;SDS011;66777;52.282;5.960;2023-08-31T01:55:37;316.90;;;307.75;;
77612;SDS011;66777;52.282;5.960;2023-08-31T01:58:03;312.77;;;303.60;;
77612;SDS011;66777;52.282;5.960;2023-08-31T02:00:29;319.50;;;310.33;;
77612;SDS011;66777;52.282;5.960;2023-08-31T02:02:59;263.40;;;255.63;;
77612;SDS011;66777;52.282;5.960;2023-08-31T02:05:25;320.17;;;310.42;;
77612;SDS011;66777;52.282;5.960;2023-08-31T02:07:51;319.80;;;310.48;;
77612;SDS011;66777;52.282;5.960;2023-08-31T02:10:17;268.33;;;259.92;;
77612;SDS011;66777;52.282;5.960;2023-08-31T02:12:42;306.40;;;297.23;;
77612;SDS011;66777;52.282;5.960;2023-08-31T02:15:08;270.50;;;262.55;;
77612;SDS011;66777;52.282;5.960;2023-08-31T02:17:34;273.13;;;264.83;;
77612;SDS011;66777;52.282;5.960;2023-08-31T02:20:00;307.55;;;298.92;;
77612;SDS011;66777;52.282;5.960;2023-08-31T02:22:30;302.58;;;294.20;;
77612;SDS011;66777;52.282;5.960;2023-08-31T02:24:56;294.00;;;285.85;;
77612;SDS011;66777;52.282;5.960;2023-08-31T02:27:22;298.20;;;290.15;;
77612;SDS011;66777;52.282;5.960;2023-08-31T02:29:47;318.20;;;309.40;;
77612;SDS011;66777;52.282;5.960;2023-08-31T02:32:14;318.20;;;310.35;;
77612;SDS011;66777;52.282;5.960;2023-08-31T02:34:39;293.92;;;286.42;;
77612;SDS011;66777;52.282;5.960;2023-08-31T02:37:05;298.25;;;290.65;;
77612;SDS011;66777;52.282;5.960;2023-08-31T02:39:31;295.45;;;287.98;;
77612;SDS011;66777;52.282;5.960;2023-08-31T02:41:57;299.67;;;292.08;;
77612;SDS011;66777;52.282;5.960;2023-08-31T02:44:23;301.27;;;293.52;;
77612;SDS011;66777;52.282;5.960;2023-08-31T02:46:49;312.10;;;304.23;;
77612;SDS011;66777;52.282;5.960;2023-08-31T02:49:15;312.95;;;305.27;;
77612;SDS011;66777;52.282;5.960;2023-08-31T02:51:41;307.85;;;299.70;;
77612;SDS011;66777;52.282;5.960;2023-08-31T02:54:06;322.30;;;314.23;;
77612;SDS011;66777;52.282;5.960;2023-08-31T02:56:32;254.55;;;247.20;;
77612;SDS011;66777;52.282;5.960;2023-08-31T02:58:58;313.17;;;304.88;;
77612;SDS011;66777;52.282;5.960;2023-08-31T03:01:24;315.38;;;306.98;;
77612;SDS011;66777;52.282;5.960;2023-08-31T03:03:50;297.45;;;289.08;;
77612;SDS011;66777;52.282;5.960;2023-08-31T03:06:15;305.65;;;296.80;;
77612;SDS011;66777;52.282;5.960;2023-08-31T03:08:41;270.42;;;262.65;;
77612;SDS011;66777;52.282;5.960;2023-08-31T03:11:06;321.80;;;312.40;;
77612;SDS011;66777;52.282;5.960;2023-08-31T03:13:33;321.65;;;312.73;;
77612;SDS011;66777;52.282;5.960;2023-08-31T03:15:59;312.48;;;303.75;;
77612;SDS011;66777;52.282;5.960;2023-08-31T03:18:26;258.20;;;250.35;;
77612;SDS011;66777;52.282;5.960;2023-08-31T03:20:52;316.50;;;307.45;;
77612;SDS011;66777;52.282;5.960;2023-08-31T03:23:19;310.02;;;301.00;;
77612;SDS011;66777;52.282;5.960;2023-08-31T03:25:45;316.65;;;307.52;;
77612;SDS011;66777;52.282;5.960;2023-08-31T03:28:10;298.27;;;289.13;;
77612;SDS011;66777;52.282;5.960;2023-08-31T03:30:36;264.48;;;256.38;;
77612;SDS011;66777;52.282;5.960;2023-08-31T03:33:02;268.15;;;259.65;;
77612;SDS011;66777;52.282;5.960;2023-08-31T03:35:28;303.70;;;294.60;;
77612;SDS011;66777;52.282;5.960;2023-08-31T03:37:54;315.70;;;305.80;;
77612;SDS011;66777;52.282;5.960;2023-08-31T03:40:21;301.45;;;291.92;;
77612;SDS011;66777;52.282;5.960;2023-08-31T03:42:48;264.42;;;255.95;;
77612;SDS011;66777;52.282;5.960;2023-08-31T03:45:14;254.45;;;246.50;;
77612;SDS011;66777;52.282;5.960;2023-08-31T03:47:40;313.15;;;303.45;;
77612;SDS011;66777;52.282;5.960;2023-08-31T03:50:06;308.40;;;298.38;;
77612;SDS011;66777;52.282;5.960;2023-08-31T03:52:33;260.33;;;252.07;;
77612;SDS011;66777;52.282;5.960;2023-08-31T03:54:59;307.23;;;297.75;;
77612;SDS011;66777;52.282;5.960;2023-08-31T03:57:24;325.75;;;316.10;;
77612;SDS011;66777;52.282;5.960;2023-08-31T03:59:50;318.55;;;308.83;;
77612;SDS011;66777;52.282;5.960;2023-08-31T04:02:16;317.77;;;307.90;;
77612;SDS011;66777;52.282;5.960;2023-08-31T04:04:41;255.18;;;246.48;;
77612;SDS011;66777;52.282;5.960;2023-08-31T04:07:07;322.33;;;312.40;;
77612;SDS011;66777;52.282;5.960;2023-08-31T04:09:33;316.17;;;306.33;;
77612;SDS011;66777;52.282;5.960;2023-08-31T04:11:59;273.75;;;264.90;;
77612;SDS011;66777;52.282;5.960;2023-08-31T04:14:27;304.40;;;294.35;;
77612;SDS011;66777;52.282;5.960;2023-08-31T04:16:54;303.27;;;293.30;;
77612;SDS011;66777;52.282;5.960;2023-08-31T04:19:20;306.05;;;296.55;;
77612;SDS011;66777;52.282;5.960;2023-08-31T04:21:47;263.25;;;254.15;;
77612;SDS011;66777;52.282;5.960;2023-08-31T04:24:13;312.30;;;302.42;;
77612;SDS011;66777;52.282;5.960;2023-08-31T04:26:39;311.88;;;302.65;;
77612;SDS011;66777;52.282;5.960;2023-08-31T04:29:05;257.52;;;248.77;;
77612;SDS011;66777;52.282;5.960;2023-08-31T04:31:31;242.77;;;234.63;;
77612;SDS011;66777;52.282;5.960;2023-08-31T04:33:57;305.25;;;295.92;;
77612;SDS011;66777;52.282;5.960;2023-08-31T04:36:23;267.65;;;258.90;;
77612;SDS011;66777;52.282;5.960;2023-08-31T04:38:50;270.27;;;260.25;;
77612;SDS011;66777;52.282;5.960;2023-08-31T04:41:17;264.00;;;255.20;;
77612;SDS011;66777;52.282;5.960;2023-08-31T04:43:43;268.50;;;259.42;;
77612;SDS011;66777;52.282;5.960;2023-08-31T04:46:09;300.08;;;290.08;;
77612;SDS011;66777;52.282;5.960;2023-08-31T04:48:35;268.13;;;259.27;;
77612;SDS011;66777;52.282;5.960;2023-08-31T04:51:01;316.50;;;306.88;;
77612;SDS011;66777;52.282;5.960;2023-08-31T04:53:29;298.52;;;289.50;;
77612;SDS011;66777;52.282;5.960;2023-08-31T04:55:55;274.42;;;265.88;;
77612;SDS011;66777;52.282;5.960;2023-08-31T04:58:21;255.10;;;247.13;;
77612;SDS011;66777;52.282;5.960;2023-08-31T05:00:46;248.63;;;240.45;;
77612;SDS011;66777;52.282;5.960;2023-08-31T05:03:13;311.80;;;302.50;;
77612;SDS011;66777;52.282;5.960;2023-08-31T05:05:39;310.40;;;300.80;;
77612;SDS011;66777;52.282;5.960;2023-08-31T05:08:07;301.25;;;291.50;;
77612;SDS011;66777;52.282;5.960;2023-08-31T05:10:33;301.75;;;292.35;;
77612;SDS011;66777;52.282;5.960;2023-08-31T05:12:59;304.75;;;295.40;;
77612;SDS011;66777;52.282;5.960;2023-08-31T05:15:25;263.42;;;255.13;;
77612;SDS011;66777;52.282;5.960;2023-08-31T05:17:55;269.60;;;260.65;;
77612;SDS011;66777;52.282;5.960;2023-08-31T05:20:21;310.58;;;301.27;;
77612;SDS011;66777;52.282;5.960;2023-08-31T05:22:48;302.95;;;293.80;;
77612;SDS011;66777;52.282;5.960;2023-08-31T05:25:14;309.90;;;300.13;;
77612;SDS011;66777;52.282;5.960;2023-08-31T05:27:40;308.95;;;299.63;;
77612;SDS011;66777;52.282;5.960;2023-08-31T05:30:07;254.40;;;246.20;;
77612;SDS011;66777;52.282;5.960;2023-08-31T05:32:33;308.70;;;299.27;;
77612;SDS011;66777;52.282;5.960;2023-08-31T05:35:00;307.58;;;296.95;;
77612;SDS011;66777;52.282;5.960;2023-08-31T05:37:25;294.55;;;285.30;;
77612;SDS011;66777;52.282;5.960;2023-08-31T05:39:56;258.60;;;250.35;;
77612;SDS011;66777;52.282;5.960;2023-08-31T05:42:22;318.08;;;308.25;;
77612;SDS011;66777;52.282;5.960;2023-08-31T05:44:48;297.90;;;288.15;;
77612;SDS011;66777;52.282;5.960;2023-08-31T05:47:14;317.42;;;307.13;;
77612;SDS011;66777;52.282;5.960;2023-08-31T05:49:40;309.60;;;299.85;;
77612;SDS011;66777;52.282;5.960;2023-08-31T05:52:05;301.10;;;291.17;;
77612;SDS011;66777;52.282;5.960;2023-08-31T05:54:31;320.27;;;310.55;;
77612;SDS011;66777;52.282;5.960;2023-08-31T05:56:57;294.85;;;284.58;;
77612;SDS011;66777;52.282;5.960;2023-08-31T05:59:23;321.55;;;311.35;;
77612;SDS011;66777;52.282;5.960;2023-08-31T06:01:49;312.13;;;301.80;;
77612;SDS011;66777;52.282;5.960;2023-08-31T06:04:14;313.80;;;304.20;;
77612;SDS011;66777;52.282;5.960;2023-08-31T06:06:40;265.65;;;257.08;;
77612;SDS011;66777;52.282;5.960;2023-08-31T06:09:05;270.38;;;261.63;;
77612;SDS011;66777;52.282;5.960;2023-08-31T06:11:32;260.92;;;252.10;;
77612;SDS011;66777;52.282;5.960;2023-08-31T06:13:58;319.25;;;309.77;;
77612;SDS011;66777;52.282;5.960;2023-08-31T06:16:23;317.85;;;308.52;;
77612;SDS011;66777;52.282;5.960;2023-08-31T06:18:49;266.73;;;258.17;;
77612;SDS011;66777;52.282;5.960;2023-08-31T06:21:16;313.38;;;303.55;;
77612;SDS011;66777;52.282;5.960;2023-08-31T06:23:42;317.02;;;307.77;;
77612;SDS011;66777;52.282;5.960;2023-08-31T06:26:07;306.02;;;297.40;;
77612;SDS011;66777;52.282;5.960;2023-08-31T06:28:33;317.92;;;308.52;;
77612;SDS011;66777;52.282;5.960;2023-08-31T06:30:59;308.75;;;299.90;;
77612;SDS011;66777;52.282;5.960;2023-08-31T06:33:25;303.50;;;294.58;;
77612;SDS011;66777;52.282;5.960;2023-08-31T06:35:51;311.02;;;301.60;;
77612;SDS011;66777;52.282;5.960;2023-08-31T06:38:17;318.73;;;309.88;;
77612;SDS011;66777;52.282;5.960;2023-08-31T06:40:43;244.23;;;237.13;;
77612;SDS011;66777;52.282;5.960;2023-08-31T06:43:09;302.02;;;293.80;;
77612;SDS011;66777;52.282;5.960;2023-08-31T06:45:35;304.08;;;295.48;;
77612;SDS011;66777;52.282;5.960;2023-08-31T06:48:01;314.50;;;305.83;;
77612;SDS011;66777;52.282;5.960;2023-08-31T06:50:27;315.58;;;306.73;;
77612;SDS011;66777;52.282;5.960;2023-08-31T06:52:53;311.35;;;303.05;;
77612;SDS011;66777;52.282;5.960;2023-08-31T06:55:19;320.17;;;311.38;;
77612;SDS011;66777;52.282;5.960;2023-08-31T06:57:45;317.63;;;308.63;;
77612;SDS011;66777;52.282;5.960;2023-08-31T07:00:11;256.95;;;249.57;;
77612;SDS011;66777;52.282;5.960;2023-08-31T07:02:40;248.95;;;240.98;;
77612;SDS011;66777;52.282;5.960;2023-08-31T07:05:07;294.52;;;285.95;;
77612;SDS011;66777;52.282;5.960;2023-08-31T07:07:32;298.67;;;290.40;;
77612;SDS011;66777;52.282;5.960;2023-08-31T07:09:58;299.35;;;291.13;;
77612;SDS011;66777;52.282;5.960;2023-08-31T07:12:25;300.17;;;292.20;;
77612;SDS011;66777;52.282;5.960;2023-08-31T07:14:50;306.42;;;298.08;;
77612;SDS011;66777;52.282;5.960;2023-08-31T07:17:20;307.63;;;299.50;;
77612;SDS011;66777;52.282;5.960;2023-08-31T07:19:46;319.15;;;310.55;;
77612;SDS011;66777;52.282;5.960;2023-08-31T07:22:12;257.75;;;250.75;;
77612;SDS011;66777;52.282;5.960;2023-08-31T07:24:38;311.88;;;303.98;;
77612;SDS011;66777;52.282;5.960;2023-08-31T07:27:04;249.38;;;242.45;;
77612;SDS011;66777;52.282;5.960;2023-08-31T07:29:30;270.33;;;262.92;;
77612;SDS011;66777;52.282;5.960;2023-08-31T07:31:56;322.27;;;314.00;;
77612;SDS011;66777;52.282;5.960;2023-08-31T07:34:22;307.13;;;299.05;;
77612;SDS011;66777;52.282;5.960;2023-08-31T07:36:49;324.27;;;315.60;;
77612;SDS011;66777;52.282;5.960;2023-08-31T07:39:15;327.05;;;317.95;;
77612;SDS011;66777;52.282;5.960;2023-08-31T07:41:42;324.13;;;314.98;;
77612;SDS011;66777;52.282;5.960;2023-08-31T07:44:08;330.33;;;321.40;;
77612;SDS011;66777;52.282;5.960;2023-08-31T07:46:34;315.98;;;307.17;;
77612;SDS011;66777;52.282;5.960;2023-08-31T07:49:00;332.67;;;322.85;;
77612;SDS011;66777;52.282;5.960;2023-08-31T07:51:27;279.08;;;270.38;;
77612;SDS011;66777;52.282;5.960;2023-08-31T07:53:53;331.73;;;321.65;;
77612;SDS011;66777;52.282;5.960;2023-08-31T07:56:19;351.45;;;341.10;;
77612;SDS011;66777;52.282;5.960;2023-08-31T07:58:45;349.13;;;338.92;;
77612;SDS011;66777;52.282;5.960;2023-08-31T08:01:10;345.80;;;334.90;;
77612;SDS011;66777;52.282;5.960;2023-08-31T08:03:36;355.52;;;345.48;;
77612;SDS011;66777;52.282;5.960;2023-08-31T08:06:02;343.10;;;333.17;;
77612;SDS011;66777;52.282;5.960;2023-08-31T08:08:28;342.77;;;332.70;;
77612;SDS011;66777;52.282;5.960;2023-08-31T08:10:55;300.25;;;290.85;;
77612;SDS011;66777;52.282;5.960;2023-08-31T08:13:21;343.25;;;333.25;;
77612;SDS011;66777;52.282;5.960;2023-08-31T08:15:46;345.00;;;334.35;;
77612;SDS011;66777;52.282;5.960;2023-08-31T08:18:12;348.30;;;337.90;;
77612;SDS011;66777;52.282;5.960;2023-08-31T08:20:38;348.17;;;337.75;;
77612;SDS011;66777;52.282;5.960;2023-08-31T08:23:05;335.23;;;325.55;;
77612;SDS011;66777;52.282;5.960;2023-08-31T08:25:32;289.60;;;280.83;;
77612;SDS011;66777;52.282;5.960;2023-08-31T08:27:58;347.83;;;337.05;;
77612;SDS011;66777;52.282;5.960;2023-08-31T08:30:23;345.05;;;335.08;;
77612;SDS011;66777;52.282;5.960;2023-08-31T08:32:49;304.48;;;295.15;;
77612;SDS011;66777;52.282;5.960;2023-08-31T08:35:15;356.73;;;346.17;;
77612;SDS011;66777;52.282;5.960;2023-08-31T08:37:41;347.10;;;337.13;;
77612;SDS011;66777;52.282;5.960;2023-08-31T08:40:07;308.15;;;299.23;;
77612;SDS011;66777;52.282;5.960;2023-08-31T08:42:38;339.60;;;330.38;;
77612;SDS011;66777;52.282;5.960;2023-08-31T08:45:07;348.83;;;339.23;;
77612;SDS011;66777;52.282;5.960;2023-08-31T08:47:40;346.75;;;337.15;;
77612;SDS011;66777;52.282;5.960;2023-08-31T08:50:10;337.27;;;328.13;;
77612;SDS011;66777;52.282;5.960;2023-08-31T08:52:36;348.98;;;339.20;;
77612;SDS011;66777;52.282;5.960;2023-08-31T08:55:04;343.70;;;334.15;;
77612;SDS011;66777;52.282;5.960;2023-08-31T08:57:31;340.70;;;331.25;;
77612;SDS011;66777;52.282;5.960;2023-08-31T09:00:00;355.92;;;345.90;;
77612;SDS011;66777;52.282;5.960;2023-08-31T09:02:25;346.45;;;336.33;;
77612;SDS011;66777;52.282;5.960;2023-08-31T09:04:51;345.70;;;335.95;;
77612;SDS011;66777;52.282;5.960;2023-08-31T09:07:22;350.88;;;341.13;;
77612;SDS011;66777;52.282;5.960;2023-08-31T09:09:49;296.15;;;287.70;;
77612;SDS011;66777;52.282;5.960;2023-08-31T09:12:22;342.70;;;333.40;;
77612;SDS011;66777;52.282;5.960;2023-08-31T09:15:01;346.48;;;337.48;;
77612;SDS011;66777;52.282;5.960;2023-08-31T09:17:39;334.27;;;325.80;;
77612;SDS011;66777;52.282;5.960;2023-08-31T09:20:09;303.67;;;295.55;;
77612;SDS011;66777;52.282;5.960;2023-08-31T09:22:35;352.65;;;343.27;;
77612;SDS011;66777;52.282;5.960;2023-08-31T09:25:00;348.52;;;339.45;;
77612;SDS011;66777;52.282;5.960;2023-08-31T09:27:26;347.33;;;337.80;;
77612;SDS011;66777;52.282;5.960;2023-08-31T09:29:55;294.15;;;285.70;;
77612;SDS011;66777;52.282;5.960;2023-08-31T09:32:22;356.30;;;346.95;;
77612;SDS011;66777;52.282;5.960;2023-08-31T09:34:48;357.92;;;348.73;;
77612;SDS011;66777;52.282;5.960;2023-08-31T09:37:15;349.58;;;340.15;;
77612;SDS011;66777;52.282;5.960;2023-08-31T09:39:41;343.80;;;335.25;;
77612;SDS011;66777;52.282;5.960;2023-08-31T09:42:07;348.23;;;339.35;;
77612;SDS011;66777;52.282;5.960;2023-08-31T09:44:34;291.77;;;283.67;;
77612;SDS011;66777;52.282;5.960;2023-08-31T09:47:08;338.23;;;329.20;;
77612;SDS011;66777;52.282;5.960;2023-08-31T09:49:34;366.05;;;356.70;;
77612;SDS011;66777;52.282;5.960;2023-08-31T09:52:02;338.35;;;329.33;;
77612;SDS011;66777;52.282;5.960;2023-08-31T09:54:29;361.20;;;351.38;;
77612;SDS011;66777;52.282;5.960;2023-08-31T09:56:58;347.63;;;338.38;;
77612;SDS011;66777;52.282;5.960;2023-08-31T09:59:27;345.85;;;335.83;;
77612;SDS011;66777;52.282;5.960;2023-08-31T10:01:54;349.48;;;340.08;;
77612;SDS011;66777;52.282;5.960;2023-08-31T10:04:26;348.42;;;338.35;;
77612;SDS011;66777;52.282;5.960;2023-08-31T10:06:55;349.17;;;338.33;;
77612;SDS011;66777;52.282;5.960;2023-08-31T10:09:21;352.48;;;341.88;;
77612;SDS011;66777;52.282;5.960;2023-08-31T10:11:47;345.58;;;334.88;;
77612;SDS011;66777;52.282;5.960;2023-08-31T10:14:13;340.98;;;331.58;;
77612;SDS011;66777;52.282;5.960;2023-08-31T10:16:40;356.63;;;347.13;;
77612;SDS011;66777;52.282;5.960;2023-08-31T10:19:08;341.63;;;332.63;;
77612;SDS011;66777;52.282;5.960;2023-08-31T10:21:34;352.13;;;342.75;;
77612;SDS011;66777;52.282;5.960;2023-08-31T10:24:00;353.95;;;344.45;;
77612;SDS011;66777;52.282;5.960;2023-08-31T10:26:29;341.50;;;332.10;;
77612;SDS011;66777;52.282;5.960;2023-08-31T10:28:57;346.48;;;336.92;;
77612;SDS011;66777;52.282;5.960;2023-08-31T10:31:24;318.25;;;309.17;;
77612;SDS011;66777;52.282;5.960;2023-08-31T10:39:00;334.33;;;324.73;;
77612;SDS011;66777;52.282;5.960;2023-08-31T10:41:33;337.77;;;328.10;;
77612;SDS011;66777;52.282;5.960;2023-08-31T10:44:00;352.75;;;342.42;;
77612;SDS011;66777;52.282;5.960;2023-08-31T10:49:25;336.15;;;326.45;;
77612;SDS011;66777;52.282;5.960;2023-08-31T10:51:55;339.00;;;329.05;;
77612;SDS011;66777;52.282;5.960;2023-08-31T10:54:22;340.63;;;330.75;;
77612;SDS011;66777;52.282;5.960;2023-08-31T10:59:22;337.67;;;328.17;;
77612;SDS011;66777;52.282;5.960;2023-08-31T11:01:56;346.98;;;337.33;;
77612;SDS011;66777;52.282;5.960;2023-08-31T11:04:28;349.60;;;339.90;;
77612;SDS011;66777;52.282;5.960;2023-08-31T11:07:14;356.13;;;346.75;;
77612;SDS011;66777;52.282;5.960;2023-08-31T11:09:40;342.30;;;333.70;;
77612;SDS011;66777;52.282;5.960;2023-08-31T11:12:07;307.02;;;299.05;;
77612;SDS011;66777;52.282;5.960;2023-08-31T11:14:33;343.88;;;335.40;;
77612;SDS011;66777;52.282;5.960;2023-08-31T11:16:59;326.17;;;318.20;;
77612;SDS011;66777;52.282;5.960;2023-08-31T11:19:26;283.35;;;275.83;;
77612;SDS011;66777;52.282;5.960;2023-08-31T11:21:53;369.77;;;360.27;;
77612;SDS011;66777;52.282;5.960;2023-08-31T11:24:19;363.88;;;354.83;;
77612;SDS011;66777;52.282;5.960;2023-08-31T11:26:53;329.80;;;321.33;;
77612;SDS011;66777;52.282;5.960;2023-08-31T11:29:20;355.15;;;345.90;;
77612;SDS011;66777;52.282;5.960;2023-08-31T11:31:46;350.60;;;341.27;;
77612;SDS011;66777;52.282;5.960;2023-08-31T11:34:15;378.55;;;368.88;;
77612;SDS011;66777;52.282;5.960;2023-08-31T11:36:42;314.08;;;305.67;;
77612;SDS011;66777;52.282;5.960;2023-08-31T11:39:10;377.20;;;367.40;;
77612;SDS011;66777;52.282;5.960;2023-08-31T11:41:36;370.17;;;360.58;;
77612;SDS011;66777;52.282;5.960;2023-08-31T11:44:15;388.83;;;378.73;;
77612;SDS011;66777;52.282;5.960;2023-08-31T11:46:42;393.42;;;383.65;;
77612;SDS011;66777;52.282;5.960;2023-08-31T11:49:10;392.48;;;382.08;;
77612;SDS011;66777;52.282;5.960;2023-08-31T11:51:37;383.38;;;373.42;;
77612;SDS011;66777;52.282;5.960;2023-08-31T11:54:04;391.83;;;382.13;;
77612;SDS011;66777;52.282;5.960;2023-08-31T11:56:39;404.50;;;394.20;;
77612;SDS011;66777;52.282;5.960;2023-08-31T12:01:37;380.60;;;371.13;;
77612;SDS011;66777;52.282;5.960;2023-08-31T12:04:10;382.95;;;373.48;;
77612;SDS011;66777;52.282;5.960;2023-08-31T12:06:37;400.75;;;390.90;;
77612;SDS011;66777;52.282;5.960;2023-08-31T12:09:04;389.80;;;380.20;;
77612;SDS011;66777;52.282;5.960;2023-08-31T12:11:33;393.88;;;383.98;;
77612;SDS011;66777;52.282;5.960;2023-08-31T12:14:03;404.20;;;394.27;;
77612;SDS011;66777;52.282;5.960;2023-08-31T12:16:42;396.13;;;386.25;;
77612;SDS011;66777;52.282;5.960;2023-08-31T12:19:09;399.42;;;389.38;;
77612;SDS011;66777;52.282;5.960;2023-08-31T12:21:35;402.67;;;393.13;;
77612;SDS011;66777;52.282;5.960;2023-08-31T12:24:01;423.05;;;413.13;;
77612;SDS011;66777;52.282;5.960;2023-08-31T12:26:28;412.92;;;403.08;;
77612;SDS011;66777;52.282;5.960;2023-08-31T12:28:54;405.00;;;394.90;;
77612;SDS011;66777;52.282;5.960;2023-08-31T12:31:21;360.05;;;351.23;;
77612;SDS011;66777;52.282;5.960;2023-08-31T12:33:48;354.02;;;345.20;;
77612;SDS011;66777;52.282;5.960;2023-08-31T12:36:14;354.13;;;345.52;;
77612;SDS011;66777;52.282;5.960;2023-08-31T12:38:40;414.88;;;405.10;;
77612;SDS011;66777;52.282;5.960;2023-08-31T12:41:06;407.73;;;398.02;;
77612;SDS011;66777;52.282;5.960;2023-08-31T12:43:34;408.15;;;398.20;;
77612;SDS011;66777;52.282;5.960;2023-08-31T12:46:00;408.80;;;399.02;;
77612;SDS011;66777;52.282;5.960;2023-08-31T12:48:26;415.55;;;405.90;;
77612;SDS011;66777;52.282;5.960;2023-08-31T12:50:52;382.67;;;373.42;;
77612;SDS011;66777;52.282;5.960;2023-08-31T12:53:20;353.38;;;344.75;;
77612;SDS011;66777;52.282;5.960;2023-08-31T12:55:47;422.17;;;412.33;;
77612;SDS011;66777;52.282;5.960;2023-08-31T12:58:12;425.45;;;415.70;;
77612;SDS011;66777;52.282;5.960;2023-08-31T13:00:38;423.90;;;414.10;;
77612;SDS011;66777;52.282;5.960;2023-08-31T13:03:04;427.55;;;417.30;;
77612;SDS011;66777;52.282;5.960;2023-08-31T13:05:32;420.27;;;410.45;;
77612;SDS011;66777;52.282;5.960;2023-08-31T13:07:58;419.52;;;409.88;;
77612;SDS011;66777;52.282;5.960;2023-08-31T13:10:23;424.20;;;414.33;;
77612;SDS011;66777;52.282;5.960;2023-08-31T13:12:49;421.95;;;412.10;;
77612;SDS011;66777;52.282;5.960;2023-08-31T13:15:15;358.30;;;349.63;;
77612;SDS011;66777;52.282;5.960;2023-08-31T13:17:41;412.60;;;402.90;;
77612;SDS011;66777;52.282;5.960;2023-08-31T13:20:06;421.55;;;411.70;;
77612;SDS011;66777;52.282;5.960;2023-08-31T13:22:33;422.67;;;412.77;;
77612;SDS011;66777;52.282;5.960;2023-08-31T13:24:59;433.85;;;423.63;;
77612;SDS011;66777;52.282;5.960;2023-08-31T13:27:25;422.63;;;412.75;;
77612;SDS011;66777;52.282;5.960;2023-08-31T13:29:51;431.95;;;422.02;;
77612;SDS011;66777;52.282;5.960;2023-08-31T13:32:17;422.77;;;412.88;;
77612;SDS011;66777;52.282;5.960;2023-08-31T13:34:43;437.85;;;427.52;;
77612;SDS011;66777;52.282;5.960;2023-08-31T13:37:09;435.60;;;425.42;;
77612;SDS011;66777;52.282;5.960;2023-08-31T13:39:36;431.98;;;421.98;;
77612;SDS011;66777;52.282;5.960;2023-08-31T13:42:02;426.95;;;416.95;;
77612;SDS011;66777;52.282;5.960;2023-08-31T13:44:29;432.70;;;422.52;;
77612;SDS011;66777;52.282;5.960;2023-08-31T13:46:58;431.05;;;421.00;;
77612;SDS011;66777;52.282;5.960;2023-08-31T13:49:23;426.88;;;416.90;;
77612;SDS011;66777;52.282;5.960;2023-08-31T13:51:49;430.10;;;420.17;;
77612;SDS011;66777;52.282;5.960;2023-08-31T13:54:15;434.73;;;424.67;;
77612;SDS011;66777;52.282;5.960;2023-08-31T13:56:41;433.95;;;423.60;;
77612;SDS011;66777;52.282;5.960;2023-08-31T13:59:08;369.20;;;360.38;;
77612;SDS011;66777;52.282;5.960;2023-08-31T14:01:33;423.08;;;413.27;;
77612;SDS011;66777;52.282;5.960;2023-08-31T14:03:59;430.52;;;420.63;;
77612;SDS011;66777;52.282;5.960;2023-08-31T14:06:26;426.75;;;416.75;;
77612;SDS011;66777;52.282;5.960;2023-08-31T14:08:51;445.42;;;434.95;;
77612;SDS011;66777;52.282;5.960;2023-08-31T14:11:17;413.23;;;403.45;;
77612;SDS011;66777;52.282;5.960;2023-08-31T14:13:43;435.75;;;425.58;;
77612;SDS011;66777;52.282;5.960;2023-08-31T14:16:11;422.20;;;412.40;;
77612;SDS011;66777;52.282;5.960;2023-08-31T14:18:37;434.42;;;424.27;;
77612;SDS011;66777;52.282;5.960;2023-08-31T14:21:02;393.40;;;384.13;;
77612;SDS011;66777;52.282;5.960;2023-08-31T14:23:29;428.88;;;418.83;;
77612;SDS011;66777;52.282;5.960;2023-08-31T14:26:00;437.80;;;427.73;;